Time;durP1;ratioP1;P1;durP2;ratioP2;P2;SDS_P1;SDS_P2;PMS_P1;PMS_P2;Temp;Humidity;BMP_temperature;BMP_pressure;BME280_temperature;BME280_humidity;BME280_pressure;Samples;Min_cycle;Max_cycle;Signal;HPM_P1;HPM_P2
2022/12/02 00:01:20;;;;;;;31.25;13.88;;;2.90;99.90;;;;;;5070362;28;20112;-75
2022/12/02 00:03:46;;;;;;;32.83;11.80;;;2.50;99.90;;;;;;5070091;28;20484;-76
2022/12/02 00:06:17;;;;;;;27.10;11.50;;;2.50;99.90;;;;;;5069724;28;20164;-75
2022/12/02 00:08:43;;;;;;;35.88;13.68;;;2.50;99.90;;;;;;5069958;28;20023;-75
2022/12/02 00:11:26;;;;;;;25.83;11.70;;;2.40;99.90;;;;;;5069927;28;20021;-76
2022/12/02 00:13:54;;;;;;;29.35;13.52;;;2.40;99.90;;;;;;5070089;28;20045;-74
2022/12/02 00:16:21;;;;;;;29.30;14.57;;;2.60;99.90;;;;;;5069819;28;20071;-75
2022/12/02 00:18:48;;;;;;;27.90;12.50;;;2.70;99.90;;;;;;5070140;28;20052;-75
2022/12/02 00:21:14;;;;;;;29.60;13.50;;;2.40;99.90;;;;;;5051570;28;20032;-75
2022/12/02 00:23:39;;;;;;;28.33;12.65;;;2.40;99.90;;;;;;5079897;28;20047;-75
2022/12/02 00:26:05;;;;;;;30.75;11.20;;;2.30;99.90;;;;;;5089755;28;20052;-75
2022/12/02 00:28:31;;;;;;;27.40;12.38;;;2.40;99.90;;;;;;5089805;28;20016;-75
2022/12/02 00:30:56;;;;;;;29.80;14.63;;;2.40;99.90;;;;;;5089943;28;20456;-75
2022/12/02 00:33:22;;;;;;;32.17;14.45;;;2.60;99.90;;;;;;5089536;28;20067;-75
2022/12/02 00:35:48;;;;;;;38.80;12.13;;;2.90;99.90;;;;;;5089473;28;20031;-75
2022/12/02 00:38:13;;;;;;;30.88;12.75;;;3.00;99.90;;;;;;5089775;28;20450;-75
2022/12/02 00:40:39;;;;;;;29.60;13.57;;;3.00;99.90;;;;;;5089573;28;20605;-75
2022/12/02 00:48:34;;;;;;;28.45;11.82;;;2.40;99.90;;;;;;5089952;28;20062;-76
2022/12/02 00:51:00;;;;;;;32.10;12.45;;;2.50;99.90;;;;;;5089371;28;20031;-74
2022/12/02 00:53:25;;;;;;;30.25;13.32;;;2.40;99.90;;;;;;5089543;28;20044;-74
2022/12/02 00:55:51;;;;;;;32.65;14.82;;;2.90;99.90;;;;;;5089498;28;20423;-75
2022/12/02 00:58:16;;;;;;;31.27;13.10;;;3.20;99.90;;;;;;5089508;28;20026;-74
2022/12/02 01:00:42;;;;;;;28.13;12.35;;;3.40;99.90;;;;;;5071041;28;20024;-75
2022/12/02 01:03:08;;;;;;;29.05;13.18;;;2.40;99.90;;;;;;5089198;28;20028;-75
2022/12/02 01:05:34;;;;;;;32.03;12.73;;;3.60;99.90;;;;;;5089317;28;20024;-75
2022/12/02 01:08:00;;;;;;;41.42;14.48;;;2.60;99.90;;;;;;5093345;28;20480;-75
2022/12/02 01:10:25;;;;;;;41.70;14.63;;;2.60;99.90;;;;;;5093352;28;20028;-76
2022/12/02 01:12:51;;;;;;;33.92;13.30;;;2.80;99.90;;;;;;5093310;28;20035;-76
2022/12/02 01:15:18;;;;;;;32.20;11.68;;;3.30;99.90;;;;;;5093289;28;20024;-76
2022/12/02 01:17:43;;;;;;;32.65;12.35;;;3.00;99.90;;;;;;5093083;28;20099;-75
2022/12/02 01:20:10;;;;;;;32.17;16.00;;;3.90;99.90;;;;;;5074696;28;20130;-76
2022/12/02 01:22:35;;;;;;;36.58;14.65;;;2.50;99.90;;;;;;5093174;28;20016;-75
2022/12/02 01:25:01;;;;;;;33.72;14.63;;;2.60;99.90;;;;;;5093119;28;20031;-75
2022/12/02 01:27:26;;;;;;;33.10;15.82;;;2.70;99.90;;;;;;5093003;28;20172;-75
2022/12/02 01:29:52;;;;;;;30.42;12.23;;;2.90;99.90;;;;;;5093137;28;20535;-75
2022/12/02 01:32:18;;;;;;;34.40;14.70;;;3.40;99.90;;;;;;5074772;28;20075;-76
2022/12/02 01:34:44;;;;;;;36.08;15.02;;;3.00;99.90;;;;;;5092789;28;20554;-75
2022/12/02 01:37:10;;;;;;;29.17;13.75;;;3.00;99.90;;;;;;5074523;28;20031;-75
2022/12/02 01:39:36;;;;;;;34.60;16.25;;;2.50;99.90;;;;;;5074470;28;20032;-75
2022/12/02 01:42:02;;;;;;;35.47;14.90;;;2.50;99.90;;;;;;5092445;28;20024;-75
2022/12/02 01:44:28;;;;;;;29.80;13.95;;;2.40;99.90;;;;;;5092488;28;20080;-75
2022/12/02 01:46:54;;;;;;;35.97;13.68;;;2.50;99.90;;;;;;5074370;28;20122;-75
2022/12/02 01:49:20;;;;;;;33.17;13.18;;;3.50;99.90;;;;;;5074484;28;20016;-76
2022/12/02 01:51:46;;;;;;;34.60;13.35;;;3.40;99.90;;;;;;5074179;28;20044;-76
2022/12/02 01:54:12;;;;;;;31.52;13.02;;;2.60;99.90;;;;;;5092563;28;20026;-76
2022/12/02 01:56:38;;;;;;;30.88;15.30;;;2.50;99.90;;;;;;5092233;28;20290;-76
2022/12/02 01:59:04;;;;;;;34.05;14.70;;;2.50;99.90;;;;;;5074570;28;20135;-77
2022/12/02 02:01:33;;;;;;;34.63;15.13;;;2.90;99.90;;;;;;5092435;28;20539;-76
2022/12/02 02:04:01;;;;;;;35.20;14.25;;;2.60;99.90;;;;;;5092603;28;20038;-76
2022/12/02 02:06:31;;;;;;;30.90;12.23;;;2.60;99.90;;;;;;5073888;28;20028;-76
2022/12/02 02:08:57;;;;;;;30.33;13.65;;;2.60;99.90;;;;;;5092342;28;20094;-76
2022/12/02 02:11:24;;;;;;;38.00;14.60;;;2.60;99.90;;;;;;5092619;28;20485;-76
2022/12/02 02:13:50;;;;;;;36.15;14.15;;;2.60;99.90;;;;;;5092201;28;20099;-77
2022/12/02 02:16:16;;;;;;;30.88;13.85;;;3.10;99.90;;;;;;5092099;28;20090;-76
2022/12/02 02:18:42;;;;;;;27.63;13.93;;;2.50;99.90;;;;;;5090682;28;20020;-76
2022/12/02 02:21:25;;;;;;;29.92;13.15;;;2.50;99.90;;;;;;5090180;28;20056;-75
2022/12/02 02:23:50;;;;;;;34.92;10.50;;;2.60;99.90;;;;;;5055480;28;20717;-75
2022/12/02 02:26:16;;;;;;;30.13;12.88;;;2.60;99.90;;;;;;5090599;28;20031;-74
2022/12/02 02:28:42;;;;;;;32.78;11.15;;;2.80;99.90;;;;;;5090554;28;20524;-76
2022/12/02 02:31:08;;;;;;;33.42;12.48;;;2.40;99.90;;;;;;5090101;28;20109;-76
2022/12/02 02:33:34;;;;;;;29.48;12.48;;;3.30;99.90;;;;;;5090255;28;20118;-76
2022/12/02 02:36:02;;;;;;;29.20;12.15;;;2.50;99.90;;;;;;5091395;28;20566;-75
2022/12/02 02:38:29;;;;;;;32.50;12.95;;;3.70;99.90;;;;;;5091846;28;20047;-75
2022/12/02 02:40:55;;;;;;;28.25;13.80;;;2.70;99.90;;;;;;5091906;28;20060;-77
2022/12/02 02:43:23;;;;;;;29.58;12.98;;;2.60;99.90;;;;;;5092010;28;20230;-76
2022/12/02 02:45:50;;;;;;;35.03;14.35;;;3.30;99.90;;;;;;5090644;28;20357;-76
2022/12/02 02:48:17;;;;;;;33.90;13.18;;;3.40;99.90;;;;;;5091516;28;20024;-76
2022/12/02 02:50:45;;;;;;;29.40;13.20;;;3.40;99.90;;;;;;5091324;28;20476;-77
2022/12/02 02:53:14;;;;;;;36.90;14.23;;;2.40;99.90;;;;;;5073257;28;20284;-77
2022/12/02 02:55:40;;;;;;;31.23;13.53;;;2.50;99.90;;;;;;5091737;28;20024;-77
2022/12/02 02:58:13;;;;;;;37.95;12.65;;;2.50;99.90;;;;;;5091760;28;20350;-76
2022/12/02 03:00:51;;;;;;;36.33;14.00;;;2.50;99.90;;;;;;5073047;28;20119;-76
2022/12/02 03:03:20;;;;;;;31.57;12.50;;;2.90;99.90;;;;;;5091815;28;20496;-77
2022/12/02 03:05:47;;;;;;;30.93;13.80;;;2.70;99.90;;;;;;5091084;28;20461;-75
2022/12/02 03:08:13;;;;;;;34.97;15.40;;;3.20;99.90;;;;;;5091220;28;20055;-78
2022/12/02 03:10:40;;;;;;;36.47;15.65;;;3.40;99.90;;;;;;5091376;28;20063;-77
2022/12/02 03:13:07;;;;;;;40.30;15.40;;;2.70;99.90;;;;;;5091526;28;20020;-76
2022/12/02 03:15:33;;;;;;;32.70;12.38;;;2.50;99.90;;;;;;5091517;28;20131;-76
2022/12/02 03:17:59;;;;;;;38.17;15.82;;;2.70;99.90;;;;;;5091371;28;20579;-76
2022/12/02 03:20:25;;;;;;;27.63;13.55;;;3.50;99.90;;;;;;5090808;28;20528;-76
2022/12/02 03:22:51;;;;;;;35.67;14.68;;;3.30;99.90;;;;;;5090939;28;20095;-76
2022/12/02 03:25:17;;;;;;;37.17;15.32;;;3.30;99.90;;;;;;5072815;28;20115;-77
2022/12/02 03:27:42;;;;;;;42.45;13.70;;;2.60;99.90;;;;;;5091381;28;20103;-76
2022/12/02 03:30:09;;;;;;;28.45;12.68;;;2.50;99.90;;;;;;5072140;28;20425;-74
2022/12/02 03:32:36;;;;;;;28.80;13.57;;;2.50;99.90;;;;;;5090703;28;20354;-75
2022/12/02 03:35:02;;;;;;;34.03;15.13;;;2.50;99.90;;;;;;5090328;28;20016;-75
2022/12/02 03:37:28;;;;;;;37.70;13.38;;;2.50;99.90;;;;;;5090738;28;20027;-76
2022/12/02 03:39:54;;;;;;;40.20;11.32;;;2.70;99.90;;;;;;5090748;28;20036;-75
2022/12/02 03:42:20;;;;;;;34.67;15.02;;;2.50;99.90;;;;;;5090541;28;20020;-76
2022/12/02 03:44:47;;;;;;;40.33;14.15;;;4.10;99.90;;;;;;5090370;28;20020;-75
2022/12/02 03:47:13;;;;;;;33.63;14.55;;;2.60;99.90;;;;;;5090259;28;20028;-76
2022/12/02 03:49:39;;;;;;;27.23;12.80;;;2.50;99.90;;;;;;5090048;28;20461;-75
2022/12/02 03:52:05;;;;;;;30.77;14.30;;;3.80;99.90;;;;;;5090387;28;20054;-75
2022/12/02 03:54:30;;;;;;;37.72;14.32;;;2.60;99.90;;;;;;5090242;28;20468;-76
2022/12/02 03:56:56;;;;;;;49.97;16.23;;;2.60;99.90;;;;;;5090303;28;20055;-75
2022/12/02 03:59:26;;;;;;;38.38;12.98;;;2.90;99.90;;;;;;5090056;28;20036;-75
2022/12/02 04:01:53;;;;;;;38.42;14.93;;;2.50;99.90;;;;;;5090153;28;20020;-75
2022/12/02 04:04:18;;;;;;;30.70;13.38;;;2.40;99.90;;;;;;5071844;28;20111;-74
2022/12/02 04:06:44;;;;;;;41.25;17.40;;;2.50;99.90;;;;;;5090539;28;20414;-75
2022/12/02 04:09:10;;;;;;;28.70;13.13;;;2.40;99.90;;;;;;5090166;28;20024;-78
2022/12/02 04:11:35;;;;;;;36.90;15.18;;;2.40;99.90;;;;;;5090182;28;20384;-75
2022/12/02 04:14:01;;;;;;;38.50;14.65;;;3.30;99.90;;;;;;5071791;28;20034;-76
2022/12/02 04:16:27;;;;;;;34.58;14.38;;;2.40;99.90;;;;;;5090107;28;20032;-77
2022/12/02 04:18:52;;;;;;;39.20;16.67;;;2.40;99.90;;;;;;5071725;28;20032;-75
2022/12/02 04:21:18;;;;;;;36.60;14.63;;;2.50;99.90;;;;;;5089504;28;20136;-76
2022/12/02 04:23:43;;;;;;;39.03;14.68;;;3.60;99.90;;;;;;5089841;28;20473;-76
2022/12/02 04:26:09;;;;;;;31.77;14.63;;;2.50;99.90;;;;;;5089719;28;20039;-75
2022/12/02 04:28:35;;;;;;;32.72;14.55;;;2.50;99.90;;;;;;5090162;28;20024;-75
2022/12/02 04:31:00;;;;;;;37.33;18.17;;;2.50;99.90;;;;;;5089892;28;20103;-75
2022/12/02 04:33:26;;;;;;;30.50;12.07;;;2.60;99.90;;;;;;5089742;28;20059;-75
2022/12/02 04:35:51;;;;;;;32.67;15.45;;;2.90;99.90;;;;;;5071426;28;20028;-75
2022/12/02 04:38:17;;;;;;;37.10;13.23;;;2.40;99.90;;;;;;5089759;28;20055;-75
2022/12/02 04:40:43;;;;;;;32.42;14.02;;;3.80;99.90;;;;;;5089411;28;20032;-75
2022/12/02 04:43:08;;;;;;;37.95;16.13;;;2.40;99.90;;;;;;5093899;28;20206;-75
2022/12/02 04:45:34;;;;;;;49.08;15.48;;;3.20;99.90;;;;;;5075671;28;20388;-75
2022/12/02 04:48:00;;;;;;;41.20;16.52;;;2.40;99.90;;;;;;5093831;28;20058;-76
2022/12/02 04:50:25;;;;;;;41.67;16.73;;;2.40;99.90;;;;;;5093625;28;20063;-75
2022/12/02 04:52:51;;;;;;;48.00;18.88;;;2.90;99.90;;;;;;5093636;28;20492;-75
2022/12/02 04:55:16;;;;;;;47.22;17.20;;;2.40;99.90;;;;;;5093876;28;20036;-75
2022/12/02 04:57:42;;;;;;;43.40;19.23;;;3.40;99.90;;;;;;5093674;28;20020;-75
2022/12/02 05:00:08;;;;;;;41.20;14.43;;;3.20;99.90;;;;;;5093657;28;20115;-75
2022/12/02 05:02:35;;;;;;;45.92;17.08;;;2.40;99.90;;;;;;5094392;28;20108;-75
2022/12/02 05:05:01;;;;;;;45.20;16.05;;;2.80;99.90;;;;;;5093983;28;20020;-77
2022/12/02 05:07:26;;;;;;;45.60;17.88;;;2.60;99.90;;;;;;5094152;28;20043;-76
2022/12/02 05:09:52;;;;;;;43.15;16.25;;;2.40;99.90;;;;;;5094396;28;20016;-75
2022/12/02 05:12:17;;;;;;;42.85;15.15;;;4.00;99.90;;;;;;5093720;28;20076;-75
2022/12/02 05:14:43;;;;;;;46.00;15.25;;;2.50;99.90;;;;;;5093623;28;20095;-77
2022/12/02 05:17:09;;;;;;;39.05;15.13;;;2.60;99.90;;;;;;5093161;28;20054;-75
2022/12/02 05:19:34;;;;;;;36.83;15.07;;;2.50;99.90;;;;;;5092805;28;20028;-76
2022/12/02 05:22:00;;;;;;;37.80;16.10;;;2.60;99.90;;;;;;5093201;28;20028;-76
2022/12/02 05:24:25;;;;;;;46.55;17.58;;;3.10;99.90;;;;;;5093122;28;20020;-76
2022/12/02 05:26:51;;;;;;;37.15;16.17;;;2.50;99.90;;;;;;5074843;28;20119;-75
2022/12/02 05:29:17;;;;;;;44.42;17.60;;;2.50;99.90;;;;;;5093552;28;20195;-75
2022/12/02 05:31:42;;;;;;;36.25;13.85;;;2.50;99.90;;;;;;5093232;28;20255;-76
2022/12/02 05:34:08;;;;;;;31.33;16.13;;;2.50;99.90;;;;;;5092971;28;20054;-75
2022/12/02 05:36:33;;;;;;;35.85;13.80;;;3.30;99.90;;;;;;5092679;28;20059;-76
2022/12/02 05:38:59;;;;;;;36.28;12.75;;;3.10;99.90;;;;;;5092905;28;20057;-75
2022/12/02 05:41:25;;;;;;;37.90;13.52;;;3.50;99.90;;;;;;5092728;28;20040;-76
2022/12/02 05:43:51;;;;;;;38.88;15.90;;;3.40;99.90;;;;;;5092935;28;20019;-76
2022/12/02 05:46:19;;;;;;;39.53;14.75;;;2.60;99.90;;;;;;5093214;28;20028;-75
2022/12/02 05:48:47;;;;;;;33.03;15.02;;;2.70;99.90;;;;;;5074599;28;20016;-75
2022/12/02 05:51:14;;;;;;;53.92;13.38;;;2.60;99.90;;;;;;5074185;28;20024;-76
2022/12/02 05:53:42;;;;;;;38.53;12.63;;;1.80;99.90;;;;;;5074262;28;20264;-75
2022/12/02 05:56:34;;;;;;;31.73;16.38;;;2.60;99.90;;;;;;5092439;28;20365;-75
2022/12/02 05:59:04;;;;;;;40.70;15.90;;;2.70;99.90;;;;;;5070017;28;20496;-75
2022/12/02 06:01:35;;;;;;;38.25;15.90;;;2.70;99.90;;;;;;5064429;28;20094;-77
2022/12/02 06:04:01;;;;;;;42.85;14.88;;;2.60;99.90;;;;;;5054201;28;20027;-75
2022/12/02 06:06:29;;;;;;;34.45;13.23;;;2.60;99.90;;;;;;5072102;28;20271;-75
2022/12/02 06:08:56;;;;;;;44.35;14.88;;;2.60;99.90;;;;;;5072229;28;20024;-75
2022/12/02 06:11:32;;;;;;;29.50;10.48;;;2.80;99.90;;;;;;5072225;28;20058;-75
2022/12/02 06:14:05;;;;;;;40.70;15.10;;;2.60;99.90;;;;;;5071982;28;20024;-75
2022/12/02 06:16:31;;;;;;;33.92;15.35;;;2.90;99.90;;;;;;5072372;28;20020;-75
2022/12/02 06:19:01;;;;;;;38.38;16.67;;;2.60;99.90;;;;;;5071992;28;20028;-75
2022/12/02 06:21:27;;;;;;;33.28;14.75;;;2.60;99.90;;;;;;5071619;28;20043;-76
2022/12/02 06:23:56;;;;;;;33.78;12.70;;;2.60;99.90;;;;;;5072074;28;20013;-75
2022/12/02 06:26:22;;;;;;;37.97;15.48;;;2.60;99.90;;;;;;5072315;28;20025;-76
2022/12/02 06:29:02;;;;;;;30.80;15.88;;;2.80;99.90;;;;;;5071837;28;20024;-74
2022/12/02 06:31:36;;;;;;;45.78;20.40;;;4.40;99.90;;;;;;5088878;28;20017;-75
2022/12/02 06:34:34;;;;;;;36.58;15.25;;;2.90;99.90;;;;;;5089797;28;20016;-75
2022/12/02 06:37:09;;;;;;;39.60;15.10;;;2.50;99.90;;;;;;5080144;28;20101;-75
2022/12/02 06:39:37;;;;;;;51.10;15.80;;;2.90;99.90;;;;;;5061292;28;20340;-75
2022/12/02 06:42:26;;;;;;;31.00;15.98;;;4.20;99.90;;;;;;5075729;28;20024;-76
2022/12/02 06:45:04;;;;;;;31.25;11.85;;;2.50;99.90;;;;;;5090673;28;20047;-77
2022/12/02 06:47:35;;;;;;;31.05;13.15;;;2.70;99.90;;;;;;5080914;28;20020;-76
2022/12/02 06:50:04;;;;;;;35.13;14.85;;;2.50;99.90;;;;;;5054444;28;20024;-75
2022/12/02 06:52:36;;;;;;;37.35;16.48;;;2.50;99.90;;;;;;5069069;28;20170;-76
2022/12/02 06:55:06;;;;;;;30.02;15.18;;;2.70;99.90;;;;;;5053327;28;20039;-76
2022/12/02 06:57:32;;;;;;;39.65;15.85;;;2.60;99.90;;;;;;5068603;28;20027;-77
2022/12/02 06:59:57;;;;;;;41.83;15.15;;;4.00;99.90;;;;;;5050777;28;20486;-75
2022/12/02 07:02:30;;;;;;;30.58;14.02;;;3.20;99.90;;;;;;5069268;28;20035;-75
2022/12/02 07:04:57;;;;;;;30.63;14.23;;;2.70;99.90;;;;;;5067367;28;20035;-75
2022/12/02 07:07:27;;;;;;;42.55;13.63;;;2.70;99.90;;;;;;5067809;28;20478;-76
2022/12/02 07:09:53;;;;;;;28.65;12.38;;;4.20;99.90;;;;;;5068289;28;20432;-75
2022/12/02 07:12:22;;;;;;;30.70;13.43;;;3.10;99.90;;;;;;5067681;28;20653;-75
2022/12/02 07:14:50;;;;;;;34.63;14.20;;;3.20;99.90;;;;;;5050227;28;20032;-75
2022/12/02 07:17:41;;;;;;;28.67;13.07;;;3.10;99.90;;;;;;5048018;28;20133;-76
2022/12/02 07:20:10;;;;;;;22.75;12.98;;;2.70;99.90;;;;;;5066151;28;20043;-76
2022/12/02 07:22:48;;;;;;;26.63;11.95;;;2.90;99.90;;;;;;5048201;28;20100;-76
2022/12/02 07:25:16;;;;;;;34.40;12.02;;;2.80;99.90;;;;;;5066096;28;20020;-76
2022/12/02 07:27:47;;;;;;;24.65;13.50;;;2.70;99.90;;;;;;5065990;28;20025;-75
2022/12/02 07:30:24;;;;;;;29.55;12.50;;;3.00;99.90;;;;;;5066582;28;20031;-75
2022/12/02 07:32:50;;;;;;;27.42;12.20;;;2.80;99.90;;;;;;5047807;28;20020;-76
2022/12/02 07:35:16;;;;;;;37.00;13.13;;;3.40;99.90;;;;;;5065898;28;20500;-75
2022/12/02 07:37:41;;;;;;;31.95;14.43;;;4.50;99.90;;;;;;5057459;28;20028;-75
2022/12/02 07:40:07;;;;;;;31.95;13.05;;;2.90;99.90;;;;;;5085898;28;20039;-76
2022/12/02 07:42:33;;;;;;;43.85;12.18;;;2.90;99.90;;;;;;5067657;28;20083;-75
2022/12/02 07:44:59;;;;;;;35.47;12.60;;;4.50;99.90;;;;;;5086957;28;20067;-75
2022/12/02 07:47:24;;;;;;;33.95;12.20;;;3.00;99.90;;;;;;5087221;28;20031;-75
2022/12/02 07:49:50;;;;;;;25.05;13.15;;;2.90;99.90;;;;;;5069473;28;20085;-76
2022/12/02 07:52:15;;;;;;;34.90;12.63;;;2.90;99.90;;;;;;5069175;28;20336;-76
2022/12/02 07:54:41;;;;;;;44.08;15.90;;;2.80;99.90;;;;;;5069604;28;20034;-76
2022/12/02 07:57:07;;;;;;;39.47;16.50;;;3.80;99.90;;;;;;5087428;28;20028;-76
2022/12/02 07:59:32;;;;;;;30.52;14.23;;;2.80;99.90;;;;;;5087224;28;20035;-75
2022/12/02 08:01:58;;;;;;;38.08;15.88;;;2.90;99.90;;;;;;5068925;28;20115;-76
2022/12/02 08:04:24;;;;;;;42.22;16.42;;;2.80;99.90;;;;;;5087493;28;20481;-75
2022/12/02 08:06:49;;;;;;;41.60;15.55;;;2.80;99.90;;;;;;5087285;28;20555;-75
2022/12/02 08:09:15;;;;;;;38.70;14.30;;;2.80;99.90;;;;;;5087390;28;20030;-75
2022/12/02 08:11:40;;;;;;;38.55;15.55;;;2.70;99.90;;;;;;5068973;28;20032;-75
2022/12/02 08:14:06;;;;;;;35.92;13.85;;;3.40;99.90;;;;;;5087465;28;20028;-75
2022/12/02 08:16:32;;;;;;;36.28;11.80;;;2.90;99.90;;;;;;5086846;28;20035;-76
2022/12/02 08:19:00;;;;;;;28.33;11.30;;;2.80;99.90;;;;;;5069012;28;20122;-75
2022/12/02 08:21:26;;;;;;;39.65;14.40;;;3.90;99.90;;;;;;5086665;28;20077;-75
2022/12/02 08:23:52;;;;;;;40.20;13.38;;;2.90;99.90;;;;;;5087388;28;20020;-75
2022/12/02 08:26:18;;;;;;;49.17;14.68;;;2.90;99.90;;;;;;5087149;28;20062;-75
2022/12/02 08:28:43;;;;;;;39.08;18.55;;;2.80;99.90;;;;;;5086965;28;20031;-76
2022/12/02 08:31:09;;;;;;;45.30;16.45;;;2.90;99.90;;;;;;5087318;28;20035;-75
2022/12/02 08:33:35;;;;;;;44.40;14.38;;;3.50;99.90;;;;;;5068872;28;20020;-75
2022/12/02 08:36:01;;;;;;;43.60;19.20;;;2.90;99.90;;;;;;5086590;28;20031;-76
2022/12/02 08:38:27;;;;;;;38.42;14.30;;;3.20;99.90;;;;;;5051907;28;20028;-76
2022/12/02 08:40:53;;;;;;;35.15;15.43;;;4.30;99.90;;;;;;5066809;28;20454;-75
2022/12/02 08:43:18;;;;;;;43.47;13.85;;;4.60;99.90;;;;;;5048243;28;20599;-76
2022/12/02 08:45:44;;;;;;;30.50;14.52;;;3.00;99.90;;;;;;5066817;28;20115;-76
2022/12/02 08:48:10;;;;;;;32.10;15.35;;;3.00;99.90;;;;;;5067121;28;20428;-76
2022/12/02 08:50:36;;;;;;;29.63;15.23;;;3.10;99.90;;;;;;5066943;28;20021;-77
2022/12/02 08:53:02;;;;;;;31.67;14.75;;;3.00;99.90;;;;;;5067093;28;20051;-78
2022/12/02 08:55:28;;;;;;;45.53;14.75;;;3.10;99.90;;;;;;5048889;28;20504;-74
2022/12/02 08:57:54;;;;;;;30.27;15.05;;;3.10;99.90;;;;;;5067758;28;20028;-73
2022/12/02 09:00:21;;;;;;;39.67;14.98;;;3.10;99.90;;;;;;5065847;28;20473;-77
2022/12/02 09:02:46;;;;;;;30.17;12.02;;;3.20;99.90;;;;;;5052911;28;20461;-78
2022/12/02 09:05:12;;;;;;;35.78;12.05;;;3.20;99.90;;;;;;5048343;28;20035;-76
2022/12/02 09:07:38;;;;;;;26.98;13.02;;;3.30;99.90;;;;;;5049169;28;20025;-76
2022/12/02 09:10:06;;;;;;;32.30;9.93;;;3.30;99.90;;;;;;5067233;28;20170;-76
2022/12/02 09:12:32;;;;;;;28.30;11.57;;;3.50;99.90;;;;;;5047985;28;20444;-76
2022/12/02 09:14:58;;;;;;;29.50;11.85;;;3.50;99.90;;;;;;5066334;28;20029;-75
2022/12/02 09:17:24;;;;;;;24.70;10.63;;;3.50;99.90;;;;;;5067375;28;20035;-76
2022/12/02 09:19:50;;;;;;;26.63;10.70;;;3.50;99.90;;;;;;5076941;28;20166;-75
2022/12/02 09:22:15;;;;;;;24.27;9.30;;;3.50;99.90;;;;;;5086645;28;20392;-75
2022/12/02 09:24:41;;;;;;;28.45;10.50;;;3.40;99.90;;;;;;5086409;28;20024;-76
2022/12/02 09:27:07;;;;;;;26.63;8.80;;;3.40;99.90;;;;;;5069041;28;20034;-76
2022/12/02 09:29:33;;;;;;;31.58;10.85;;;3.50;99.90;;;;;;5072752;28;20024;-77
2022/12/02 09:31:59;;;;;;;39.67;10.77;;;3.40;99.90;;;;;;5068538;28;20043;-78
2022/12/02 09:34:25;;;;;;;28.92;11.30;;;3.50;99.90;;;;;;5068973;28;20469;-76
2022/12/02 09:36:51;;;;;;;38.65;11.55;;;3.50;99.90;;;;;;5072650;28;20500;-75
2022/12/02 09:39:16;;;;;;;33.40;8.88;;;3.50;99.90;;;;;;5071417;28;20480;-76
2022/12/02 09:41:43;;;;;;;25.52;8.63;;;3.50;99.90;;;;;;5089727;28;20024;-77
2022/12/02 09:44:08;;;;;;;37.50;12.15;;;3.50;99.90;;;;;;5072042;28;20392;-76
2022/12/02 09:46:35;;;;;;;19.25;8.10;;;3.50;99.90;;;;;;5071382;28;20027;-75
2022/12/02 09:49:01;;;;;;;26.15;9.73;;;5.10;99.90;;;;;;5088965;28;20270;-76
2022/12/02 09:51:27;;;;;;;37.60;13.50;;;3.60;99.90;;;;;;5088968;28;20400;-76
2022/12/02 09:53:53;;;;;;;33.47;9.88;;;3.50;99.90;;;;;;5071206;28;20146;-74
2022/12/02 09:56:20;;;;;;;31.95;10.57;;;3.50;99.90;;;;;;5088982;28;20024;-75
2022/12/02 09:58:49;;;;;;;36.33;11.82;;;3.50;99.90;;;;;;5089523;28;20024;-75
2022/12/02 10:01:16;;;;;;;36.20;12.32;;;4.30;99.90;;;;;;5089321;28;20284;-75
2022/12/02 10:03:44;;;;;;;29.02;11.30;;;3.60;99.90;;;;;;5089485;28;20039;-77
2022/12/02 10:06:20;;;;;;;34.42;13.10;;;3.70;99.90;;;;;;5072838;28;20028;-77
2022/12/02 10:08:46;;;;;;;27.98;9.27;;;3.80;99.90;;;;;;5093110;28;20059;-75
2022/12/02 10:11:22;;;;;;;22.40;8.82;;;3.70;99.90;;;;;;5069470;28;20044;-76
2022/12/02 10:13:48;;;;;;;26.65;8.63;;;3.60;99.90;;;;;;5087171;28;20484;-75
2022/12/02 10:16:15;;;;;;;30.35;9.90;;;;;;;;;;5086996;28;20021;-76
2022/12/02 10:18:41;;;;;;;31.02;9.02;;;3.90;99.90;;;;;;5069492;28;20520;-76
2022/12/02 10:21:07;;;;;;;31.85;12.30;;;3.90;99.90;;;;;;5069711;28;20366;-76
2022/12/02 10:23:57;;;;;;;26.55;9.20;;;4.00;99.90;;;;;;5070363;28;20254;-75
2022/12/02 10:26:23;;;;;;;32.63;11.90;;;4.10;99.90;;;;;;5088473;28;20031;-75
2022/12/02 10:29:27;;;;;;;21.02;9.95;;;4.20;99.90;;;;;;5088568;28;20030;-76
2022/12/02 10:32:02;;;;;;;22.70;9.95;;;4.20;99.90;;;;;;5072710;28;20564;-76
2022/12/02 10:34:30;;;;;;;31.73;8.70;;;4.20;99.90;;;;;;5088899;28;20036;-76
2022/12/02 10:36:56;;;;;;;24.92;9.05;;;4.30;99.90;;;;;;5084527;28;20517;-76
2022/12/02 10:39:31;;;;;;;28.23;10.00;;;4.30;99.90;;;;;;5067113;28;20052;-76
2022/12/02 10:42:02;;;;;;;30.00;9.85;;;4.40;99.90;;;;;;5049708;28;20509;-76
2022/12/02 10:44:29;;;;;;;24.17;9.75;;;4.50;99.90;;;;;;5060054;28;20388;-76
2022/12/02 10:47:14;;;;;;;31.08;11.25;;;4.60;99.90;;;;;;5058625;28;20046;-76
2022/12/02 10:49:59;;;;;;;32.90;10.35;;;4.70;99.90;;;;;;5076971;28;20030;-76
2022/12/02 10:52:37;;;;;;;34.53;11.18;;;4.40;99.90;;;;;;5077482;28;20044;-78
2022/12/02 10:55:04;;;;;;;23.20;9.32;;;4.50;99.90;;;;;;5077572;28;20056;-76
2022/12/02 10:57:32;;;;;;;30.13;10.10;;;4.50;99.90;;;;;;5058279;28;20384;-75
2022/12/02 11:00:01;;;;;;;29.23;10.35;;;4.70;99.90;;;;;;5069865;28;20067;-75
2022/12/02 11:02:38;;;;;;;27.63;9.65;;;4.80;99.90;;;;;;5075483;28;20417;-75
2022/12/02 11:05:16;;;;;;;23.35;9.88;;;5.00;99.90;;;;;;5087390;28;20089;-76
2022/12/02 11:07:50;;;;;;;23.23;9.48;;;5.00;99.90;;;;;;5090205;28;20023;-76
2022/12/02 11:10:22;;;;;;;28.17;10.32;;;5.30;99.90;;;;;;5071814;28;20025;-76
2022/12/02 11:12:48;;;;;;;23.35;10.55;;;4.70;99.90;;;;;;5070365;28;20147;-76
2022/12/02 11:15:32;;;;;;;28.23;11.20;;;4.70;99.90;;;;;;5065321;28;20028;-75
2022/12/02 11:17:58;;;;;;;30.30;11.80;;;4.80;99.90;;;;;;5079243;28;20026;-75
2022/12/02 11:20:34;;;;;;;26.85;9.73;;;4.80;99.90;;;;;;5078874;28;20044;-74
2022/12/02 11:22:59;;;;;;;25.00;8.60;;;4.90;99.90;;;;;;5078472;28;20020;-75
2022/12/02 11:25:46;;;;;;;23.40;8.18;;;4.80;99.90;;;;;;5061243;28;20035;-74
2022/12/02 11:28:27;;;;;;;25.42;9.35;;;4.60;99.90;;;;;;5056245;28;20025;-76
2022/12/02 11:31:11;;;;;;;27.25;9.98;;;4.50;99.90;;;;;;5078639;28;20048;-77
2022/12/02 11:33:42;;;;;;;25.80;9.80;;;4.50;99.90;;;;;;5068171;28;20091;-75
2022/12/02 11:36:08;;;;;;;26.50;10.43;;;4.50;99.90;;;;;;5088282;28;20090;-75
2022/12/02 11:38:50;;;;;;;29.20;11.50;;;4.40;99.90;;;;;;5068315;28;20028;-74
2022/12/02 11:41:42;;;;;;;26.85;11.55;;;4.50;99.90;;;;;;5090527;28;20034;-75
2022/12/02 11:44:27;;;;;;;29.35;9.68;;;4.40;99.90;;;;;;5051696;28;20341;-75
2022/12/02 11:46:58;;;;;;;20.58;9.77;;;4.30;99.90;;;;;;5098997;28;20023;-75
2022/12/02 11:49:29;;;;;;;20.77;7.63;;;4.50;99.90;;;;;;5079939;28;20028;-75
2022/12/02 11:52:08;;;;;;;37.30;11.20;;;4.60;99.90;;;;;;5079662;28;20047;-75
2022/12/02 11:54:38;;;;;;;27.70;9.50;;;4.60;99.90;;;;;;5098613;28;20034;-75
2022/12/02 11:57:05;;;;;;;23.70;9.43;;;4.10;99.90;;;;;;5098159;28;20063;-76
2022/12/02 11:59:34;;;;;;;22.70;8.23;;;4.40;99.90;;;;;;5079772;28;20030;-74
2022/12/02 12:02:20;;;;;;;24.25;9.75;;;4.40;99.90;;;;;;5099284;28;20137;-76
2022/12/02 12:04:56;;;;;;;25.92;10.02;;;5.40;99.90;;;;;;5099155;28;20042;-75
2022/12/02 12:07:22;;;;;;;22.08;9.70;;;4.50;99.90;;;;;;5081130;28;20284;-76
2022/12/02 12:09:58;;;;;;;22.38;10.15;;;4.70;99.90;;;;;;5099387;28;20103;-76
2022/12/02 12:12:23;;;;;;;28.70;10.63;;;4.70;99.90;;;;;;5080645;28;20024;-77
2022/12/02 12:15:01;;;;;;;29.92;12.10;;;4.70;99.90;;;;;;5098558;28;20312;-75
2022/12/02 12:17:41;;;;;;;24.25;9.40;;;4.60;99.90;;;;;;5098317;28;20036;-75
2022/12/02 12:20:29;;;;;;;;;;;4.50;99.90;;;;;;5099061;28;20028;-75
2022/12/02 12:23:27;;;;;;;22.27;8.27;;;4.50;99.90;;;;;;5098443;28;20215;-74
2022/12/02 12:25:53;;;;;;;27.07;11.10;;;4.50;99.90;;;;;;5086601;28;20031;-75
2022/12/02 12:28:37;;;;;;;26.90;9.88;;;4.50;99.90;;;;;;5057135;28;20020;-76
2022/12/02 12:31:07;;;;;;;32.08;12.23;;;4.30;99.90;;;;;;5049244;28;20082;-74
2022/12/02 12:33:32;;;;;;;28.77;10.05;;;4.40;99.90;;;;;;5066582;28;20504;-77
2022/12/02 12:35:59;;;;;;;28.05;10.10;;;4.30;99.90;;;;;;5063938;28;20020;-78
2022/12/02 12:38:27;;;;;;;30.80;10.35;;;4.20;99.90;;;;;;5081616;28;20054;-77
2022/12/02 12:40:53;;;;;;;28.88;10.63;;;4.30;99.90;;;;;;5068060;28;20047;-76
2022/12/02 12:43:19;;;;;;;26.52;10.57;;;4.20;99.90;;;;;;5085553;28;20016;-75
2022/12/02 12:45:45;;;;;;;39.15;11.10;;;4.30;99.90;;;;;;5085707;28;20433;-80
2022/12/02 12:48:10;;;;;;;27.17;10.50;;;4.30;99.90;;;;;;5086804;28;20481;-74
2022/12/02 12:50:36;;;;;;;38.20;14.50;;;4.40;99.90;;;;;;5067081;28;20365;-76